createdAt,value
2018-03-15T00:00:32.181Z,86.16
2018-03-15T00:01:32.175Z,85.88
2018-03-15T00:02:32.181Z,85.97
2018-03-15T00:03:32.192Z,85.88
2018-03-15T00:04:32.194Z,86.26
2018-03-15T00:05:32.180Z,86.07
2018-03-15T00:06:32.192Z,85.88
2018-03-15T00:07:32.188Z,85.78
2018-03-15T00:08:32.281Z,85.97
2018-03-15T00:09:32.209Z,86.64
2018-03-15T00:10:32.210Z,86.74
2018-03-15T00:11:32.236Z,86.55
2018-03-15T00:12:32.306Z,86.55
2018-03-15T00:13:32.213Z,86.55
2018-03-15T00:14:32.218Z,86.45
2018-03-15T00:15:32.209Z,86.45
2018-03-15T00:16:32.230Z,86.64
2018-03-15T00:17:32.217Z,86.45
2018-03-15T00:18:32.203Z,86.45
2018-03-15T00:19:32.202Z,86.45
2018-03-15T00:20:32.199Z,85.97
2018-03-15T00:21:32.202Z,86.35
2018-03-15T00:22:32.201Z,86.45
2018-03-15T00:23:32.238Z,86.55
2018-03-15T00:24:32.237Z,86.69
2018-03-15T00:25:32.203Z,86.74
2018-03-15T00:26:32.204Z,86.64
2018-03-15T00:27:32.212Z,86.69
2018-03-15T00:28:32.225Z,87.07
2018-03-15T00:29:32.275Z,87.07
2018-03-15T00:30:32.254Z,86.88
2018-03-15T00:31:32.256Z,87.07
2018-03-15T00:32:32.236Z,86.93
2018-03-15T00:33:32.248Z,87.07
2018-03-15T00:34:32.252Z,86.98
2018-03-15T00:35:32.225Z,87.26
2018-03-15T00:36:32.231Z,87.35
2018-03-15T00:37:32.217Z,87.35
2018-03-15T00:38:32.215Z,87.07
2018-03-15T00:39:32.225Z,86.98
2018-03-15T00:40:32.223Z,87.16
2018-03-15T00:41:32.215Z,87.68
2018-03-15T00:42:32.212Z,87.64
2018-03-15T00:43:32.238Z,87.07
2018-03-15T00:44:32.235Z,87.26
2018-03-15T00:45:32.240Z,87.21
2018-03-15T00:46:32.237Z,87.64
2018-03-15T00:47:32.244Z,87.45
2018-03-15T00:48:32.250Z,87.64
2018-03-15T00:49:32.251Z,87.35
2018-03-15T00:50:32.253Z,87.26
2018-03-15T00:51:32.237Z,87.64
2018-03-15T00:52:32.243Z,87.26
2018-03-15T00:53:32.250Z,87.35
2018-03-15T00:54:32.229Z,87.16
2018-03-15T00:55:32.295Z,87.54
2018-03-15T00:56:32.309Z,87.45
2018-03-15T00:57:32.232Z,87.26
2018-03-15T00:58:32.238Z,87.45
2018-03-15T00:59:32.249Z,87.64
2018-03-15T01:00:32.239Z,87.54
2018-03-15T01:01:32.237Z,87.64
2018-03-15T01:02:32.246Z,87.54
2018-03-15T01:03:32.254Z,87.35
2018-03-15T01:04:32.276Z,87.26
2018-03-15T01:05:32.270Z,87.54
2018-03-15T01:06:32.245Z,87.35
2018-03-15T01:07:32.266Z,87.45
2018-03-15T01:08:32.249Z,87.54
2018-03-15T01:09:32.249Z,87.45
2018-03-15T01:10:32.258Z,87.35
2018-03-15T01:11:32.243Z,87.54
2018-03-15T01:12:32.248Z,87.92
2018-03-15T01:13:32.252Z,88.30
2018-03-15T01:14:32.254Z,87.54
2018-03-15T01:15:32.260Z,87.73
2018-03-15T01:16:32.253Z,87.73
2018-03-15T01:17:32.256Z,87.64
2018-03-15T01:18:32.258Z,87.54
2018-03-15T01:19:32.260Z,87.54
2018-03-15T01:20:32.258Z,87.73
2018-03-15T01:21:32.268Z,87.73
2018-03-15T01:22:32.282Z,87.64
2018-03-15T01:23:32.266Z,87.64
2018-03-15T01:24:32.269Z,87.54
2018-03-15T01:25:32.273Z,88.30
2018-03-15T01:26:32.280Z,88.11
2018-03-15T01:27:32.300Z,88.30
2018-03-15T01:28:32.270Z,88.11
2018-03-15T01:29:32.271Z,88.30
2018-03-15T01:30:32.270Z,87.92
2018-03-15T01:31:32.272Z,88.30
2018-03-15T01:32:32.270Z,88.40
2018-03-15T01:33:32.270Z,87.92
2018-03-15T01:34:32.272Z,88.30
2018-03-15T01:35:33.271Z,87.64
2018-03-15T01:36:32.279Z,87.73
2018-03-15T01:37:32.269Z,87.64
2018-03-15T01:38:32.296Z,88.49
2018-03-15T01:39:32.283Z,88.30
2018-03-15T01:40:32.295Z,87.73
2018-03-15T01:41:32.291Z,88.11
2018-03-15T01:42:32.304Z,88.21
2018-03-15T01:43:32.297Z,87.92
2018-03-15T01:44:32.296Z,87.92
2018-03-15T01:45:32.296Z,88.02
2018-03-15T01:46:32.285Z,88.02
2018-03-15T01:47:32.287Z,88.02
2018-03-15T01:48:32.304Z,87.92
2018-03-15T01:49:32.282Z,87.73
2018-03-15T01:50:32.295Z,88.21
2018-03-15T01:51:32.283Z,88.02
2018-03-15T01:52:32.281Z,87.73
2018-03-15T01:53:32.291Z,88.11
2018-03-15T01:54:32.311Z,87.83
2018-03-15T01:55:32.301Z,88.30
2018-03-15T01:56:32.301Z,88.21
2018-03-15T01:57:32.294Z,87.64
2018-03-15T01:58:32.323Z,87.73
2018-03-15T01:59:32.303Z,87.54
2018-03-15T02:00:32.311Z,87.73
2018-03-15T02:01:32.310Z,87.73
2018-03-15T02:02:32.305Z,87.54
2018-03-15T02:03:32.344Z,87.54
2018-03-15T02:04:33.237Z,87.16
2018-03-15T02:05:32.302Z,87.35
2018-03-15T02:06:32.302Z,87.45
2018-03-15T02:07:32.320Z,87.45
2018-03-15T02:08:32.315Z,87.73
2018-03-15T02:09:32.299Z,87.73
2018-03-15T02:10:32.304Z,87.45
2018-03-15T02:11:32.311Z,87.45
2018-03-15T02:12:32.312Z,87.16
2018-03-15T02:13:32.315Z,87.45
2018-03-15T02:14:32.306Z,87.16
2018-03-15T02:15:32.365Z,87.35
2018-03-15T02:16:32.316Z,87.64
2018-03-15T02:17:32.332Z,87.73
2018-03-15T02:18:32.370Z,87.35
2018-03-15T02:19:32.354Z,87.16
2018-03-15T02:20:32.357Z,87.35
2018-03-15T02:21:32.339Z,87.07
2018-03-15T02:22:32.361Z,87.07
2018-03-15T02:23:32.341Z,87.35
2018-03-15T02:24:32.318Z,87.83
2018-03-15T02:25:32.336Z,87.64
2018-03-15T02:26:32.313Z,87.45
2018-03-15T02:27:32.442Z,87.45
2018-03-15T02:28:32.319Z,87.45
2018-03-15T02:29:32.329Z,87.54
2018-03-15T02:30:32.333Z,87.54
2018-03-15T02:31:32.329Z,87.45
2018-03-15T02:32:32.343Z,87.35
2018-03-15T02:33:32.339Z,87.35
2018-03-15T02:34:32.342Z,87.64
2018-03-15T02:35:32.336Z,87.45
2018-03-15T02:36:32.358Z,87.45
2018-03-15T02:37:32.358Z,87.64
2018-03-15T02:38:32.381Z,87.45
2018-03-15T02:39:32.342Z,87.35
2018-03-15T02:40:32.365Z,87.54
2018-03-15T02:41:32.393Z,87.73
2018-03-15T02:42:32.354Z,87.54
2018-03-15T02:43:32.346Z,87.45
2018-03-15T02:44:32.341Z,87.54
2018-03-15T02:45:32.336Z,87.54
2018-03-15T02:46:32.343Z,87.54
2018-03-15T02:47:32.341Z,87.16
2018-03-15T02:48:32.355Z,87.54
2018-03-15T02:49:32.354Z,87.64
2018-03-15T02:50:32.357Z,87.54
2018-03-15T02:51:32.358Z,87.54
2018-03-15T02:52:32.366Z,87.64
2018-03-15T02:53:32.367Z,87.54
2018-03-15T02:54:32.345Z,87.35
2018-03-15T02:55:32.350Z,87.26
2018-03-15T02:56:32.383Z,87.64
2018-03-15T02:57:32.355Z,87.45
2018-03-15T02:58:32.350Z,87.54
2018-03-15T02:59:32.349Z,87.54
2018-03-15T03:00:32.364Z,87.35
2018-03-15T03:01:32.344Z,87.45
2018-03-15T03:02:32.353Z,87.35
2018-03-15T03:03:32.353Z,87.26
2018-03-15T03:04:32.366Z,87.64
2018-03-15T03:05:32.361Z,87.45
2018-03-15T03:06:32.369Z,87.35
2018-03-15T03:07:32.384Z,87.26
2018-03-15T03:08:32.372Z,87.45
2018-03-15T03:09:32.351Z,87.64
2018-03-15T03:10:32.379Z,88.02
2018-03-15T03:11:32.424Z,87.35
2018-03-15T03:12:32.370Z,87.35
2018-03-15T03:13:32.393Z,87.35
2018-03-15T03:14:32.372Z,87.45
2018-03-15T03:15:32.375Z,87.26
2018-03-15T03:16:32.356Z,87.35
2018-03-15T03:17:32.364Z,87.35
2018-03-15T03:18:32.361Z,87.54
2018-03-15T03:19:32.372Z,87.64
2018-03-15T03:20:32.363Z,87.54
2018-03-15T03:21:32.378Z,87.92
2018-03-15T03:22:32.365Z,87.64
2018-03-15T03:23:32.376Z,87.54
2018-03-15T03:24:32.369Z,87.54
2018-03-15T03:25:32.376Z,87.35
2018-03-15T03:26:32.377Z,87.54
2018-03-15T03:27:32.381Z,87.64
2018-03-15T03:28:32.390Z,87.35
2018-03-15T03:29:32.378Z,87.45
2018-03-15T03:30:32.390Z,87.54
2018-03-15T03:31:32.384Z,87.64
2018-03-15T03:32:32.385Z,87.64
2018-03-15T03:33:32.378Z,87.35
2018-03-15T03:34:32.377Z,87.54
2018-03-15T03:35:32.375Z,87.26
2018-03-15T03:36:33.251Z,87.45
2018-03-15T03:37:32.382Z,87.26
2018-03-15T03:38:32.387Z,87.45
2018-03-15T03:39:32.398Z,87.54
2018-03-15T03:40:32.385Z,87.26
2018-03-15T03:41:32.381Z,87.64
2018-03-15T03:42:32.403Z,87.54
2018-03-15T03:43:32.403Z,87.45
2018-03-15T03:44:32.379Z,87.45
2018-03-15T03:45:32.392Z,87.54
2018-03-15T03:46:32.388Z,87.54
2018-03-15T03:47:32.382Z,87.45
2018-03-15T03:48:32.388Z,87.26
2018-03-15T03:49:32.395Z,87.45
2018-03-15T03:50:32.399Z,87.35
2018-03-15T03:51:32.384Z,87.35
2018-03-15T03:52:32.385Z,87.35
2018-03-15T03:53:32.396Z,87.64
2018-03-15T03:54:32.401Z,87.64
2018-03-15T03:55:32.392Z,87.64
2018-03-15T03:56:32.384Z,87.45
2018-03-15T03:57:32.394Z,87.35
2018-03-15T03:58:32.405Z,87.45
2018-03-15T03:59:32.390Z,87.45
2018-03-15T04:00:32.405Z,87.26
2018-03-15T04:01:32.398Z,87.35
2018-03-15T04:02:32.396Z,87.35
2018-03-15T04:03:32.404Z,87.54
2018-03-15T04:04:32.422Z,87.35
2018-03-15T04:05:32.407Z,87.35
2018-03-15T04:06:32.415Z,87.35
2018-03-15T04:07:32.412Z,87.64
2018-03-15T04:08:32.401Z,87.35
2018-03-15T04:09:32.420Z,87.26
2018-03-15T04:10:32.405Z,87.07
2018-03-15T04:11:32.395Z,87.35
2018-03-15T04:12:32.406Z,87.35
2018-03-15T04:13:32.397Z,87.54
2018-03-15T04:14:32.404Z,87.45
2018-03-15T04:15:32.405Z,87.35
2018-03-15T04:16:32.403Z,87.35
2018-03-15T04:17:32.400Z,87.26
2018-03-15T04:18:32.404Z,87.35
2018-03-15T04:19:32.417Z,87.35
2018-03-15T04:20:32.421Z,87.45
2018-03-15T04:21:32.426Z,87.26
2018-03-15T04:22:32.417Z,87.54
2018-03-15T04:23:33.273Z,87.64
2018-03-15T04:24:34.126Z,87.54
2018-03-15T04:25:34.119Z,87.73
2018-03-15T04:26:33.990Z,87.45
2018-03-15T04:27:32.444Z,87.54
2018-03-15T04:28:32.430Z,87.54
2018-03-15T04:29:32.445Z,87.26
2018-03-15T04:30:32.420Z,86.98
2018-03-15T04:31:32.414Z,87.45
2018-03-15T04:32:32.413Z,87.54
2018-03-15T04:33:32.421Z,87.35
2018-03-15T04:34:33.269Z,87.64
2018-03-15T04:35:32.422Z,87.54
2018-03-15T04:36:32.428Z,87.54
2018-03-15T04:37:32.421Z,87.54
2018-03-15T04:38:32.454Z,87.54
2018-03-15T04:39:32.429Z,87.45
2018-03-15T04:40:32.421Z,87.54
2018-03-15T04:41:32.432Z,87.35
2018-03-15T04:42:32.436Z,87.26
2018-03-15T04:43:32.417Z,87.54
2018-03-15T04:44:32.443Z,87.35
2018-03-15T04:45:32.425Z,87.54
2018-03-15T04:46:32.426Z,87.54
2018-03-15T04:47:32.420Z,87.45
2018-03-15T04:48:32.428Z,87.26
2018-03-15T04:49:32.425Z,87.45
2018-03-15T04:50:32.429Z,87.64
2018-03-15T04:51:32.433Z,87.35
2018-03-15T04:52:32.456Z,87.35
2018-03-15T04:53:32.421Z,87.45
2018-03-15T04:54:32.428Z,87.16
2018-03-15T04:55:32.450Z,87.35
2018-03-15T04:56:32.436Z,87.26
2018-03-15T04:57:32.444Z,87.35
2018-03-15T04:58:32.471Z,87.35
2018-03-15T04:59:32.452Z,87.35
2018-03-15T05:00:32.443Z,87.35
2018-03-15T05:01:32.442Z,87.07
2018-03-15T05:02:32.425Z,87.45
2018-03-15T05:03:32.444Z,87.45
2018-03-15T05:04:32.464Z,87.64
2018-03-15T05:05:32.448Z,87.35
2018-03-15T05:06:32.430Z,87.26
2018-03-15T05:07:32.433Z,86.98
2018-03-15T05:08:32.438Z,87.07
2018-03-15T05:09:32.438Z,87.64
2018-03-15T05:10:32.442Z,87.35
2018-03-15T05:11:32.439Z,87.54
2018-03-15T05:12:32.454Z,87.26
2018-03-15T05:13:32.455Z,87.54
2018-03-15T05:14:32.470Z,87.45
2018-03-15T05:15:32.457Z,87.45
2018-03-15T05:16:32.449Z,87.35
2018-03-15T05:17:32.472Z,87.54
2018-03-15T05:18:32.470Z,87.16
2018-03-15T05:19:32.440Z,87.16
2018-03-15T05:20:32.455Z,87.54
2018-03-15T05:21:32.438Z,87.54
2018-03-15T05:22:33.358Z,87.35
2018-03-15T05:23:32.457Z,87.45
2018-03-15T05:24:32.444Z,87.54
2018-03-15T05:25:32.462Z,87.35
2018-03-15T05:26:32.533Z,87.16
2018-03-15T05:27:32.551Z,87.35
2018-03-15T05:28:32.472Z,87.64
2018-03-15T05:29:32.463Z,87.64
2018-03-15T05:30:32.449Z,87.54
2018-03-15T05:31:32.463Z,87.54
2018-03-15T05:32:32.465Z,87.64
2018-03-15T05:33:32.466Z,87.54
2018-03-15T05:34:32.468Z,87.64
2018-03-15T05:35:32.450Z,87.54
2018-03-15T05:36:32.481Z,87.26
2018-03-15T05:37:32.469Z,87.64
2018-03-15T05:38:32.536Z,87.54
2018-03-15T05:39:32.447Z,87.35
2018-03-15T05:40:32.487Z,87.54
2018-03-15T05:41:32.461Z,86.98
2018-03-15T05:42:32.453Z,87.35
2018-03-15T05:43:32.457Z,87.45
2018-03-15T05:44:32.461Z,87.45
2018-03-15T05:45:32.459Z,87.45
2018-03-15T05:46:32.473Z,87.07
2018-03-15T05:47:32.475Z,87.64
2018-03-15T05:48:32.467Z,87.45
2018-03-15T05:49:32.480Z,87.45
2018-03-15T05:50:32.490Z,87.35
2018-03-15T05:51:32.470Z,87.35
2018-03-15T05:52:32.471Z,87.64
2018-03-15T05:53:32.508Z,87.26
2018-03-15T05:54:32.462Z,86.98
2018-03-15T05:55:32.515Z,87.16
2018-03-15T05:56:32.456Z,87.16
2018-03-15T05:57:32.465Z,86.98
2018-03-15T05:58:32.482Z,87.07
2018-03-15T05:59:32.469Z,87.07
2018-03-15T06:00:32.463Z,86.88
2018-03-15T06:01:32.480Z,87.16
2018-03-15T06:02:32.484Z,86.88
2018-03-15T06:03:32.496Z,87.16
2018-03-15T06:04:32.480Z,87.35
2018-03-15T06:05:32.494Z,87.35
2018-03-15T06:06:32.499Z,87.45
2018-03-15T06:07:32.494Z,88.40
2018-03-15T06:08:32.483Z,88.30
2018-03-15T06:09:32.496Z,88.16
2018-03-15T06:10:32.473Z,87.21
2018-03-15T06:11:32.499Z,86.64
2018-03-15T06:12:32.468Z,86.16
2018-03-15T06:13:32.471Z,85.78
2018-03-15T06:14:32.470Z,86.07
2018-03-15T06:15:32.468Z,85.97
2018-03-15T06:16:33.293Z,85.60
2018-03-15T06:17:32.492Z,85.03
2018-03-15T06:18:32.475Z,85.13
2018-03-15T06:19:32.497Z,85.55
2018-03-15T06:20:32.497Z,85.55
2018-03-15T06:21:32.491Z,85.46
2018-03-15T06:22:32.520Z,86.31
2018-03-15T06:23:32.493Z,86.26
2018-03-15T06:24:32.486Z,86.12
2018-03-15T06:25:32.473Z,86.22
2018-03-15T06:26:32.487Z,86.03
2018-03-15T06:27:32.515Z,85.60
2018-03-15T06:28:32.524Z,85.50
2018-03-15T06:29:32.482Z,85.36
2018-03-15T06:30:32.488Z,85.60
2018-03-15T06:31:32.492Z,85.78
2018-03-15T06:32:32.504Z,85.78
2018-03-15T06:33:32.515Z,85.78
2018-03-15T06:34:32.556Z,85.22
2018-03-15T06:35:32.482Z,85.03
2018-03-15T06:36:32.517Z,85.31
2018-03-15T06:37:32.508Z,84.74
2018-03-15T06:38:32.508Z,84.84
2018-03-15T06:39:32.496Z,84.94
2018-03-15T06:40:32.518Z,85.31
2018-03-15T06:41:32.502Z,84.55
2018-03-15T06:42:32.509Z,84.27
2018-03-15T06:43:32.521Z,84.46
2018-03-15T06:44:32.531Z,84.46
2018-03-15T06:45:32.520Z,84.46
2018-03-15T06:46:32.526Z,83.98
2018-03-15T06:47:32.497Z,83.98
2018-03-15T06:48:32.500Z,84.08
2018-03-15T06:49:32.496Z,83.89
2018-03-15T06:50:32.503Z,83.89
2018-03-15T06:51:32.511Z,83.61
2018-03-15T06:52:32.521Z,83.32
2018-03-15T06:53:32.523Z,83.61
2018-03-15T06:54:32.506Z,83.04
2018-03-15T06:55:32.510Z,82.56
2018-03-15T06:56:32.526Z,83.04
2018-03-15T06:57:32.515Z,82.56
2018-03-15T06:58:32.521Z,82.56
2018-03-15T06:59:32.522Z,81.90
2018-03-15T07:00:32.544Z,81.85
2018-03-15T07:01:32.522Z,81.56
2018-03-15T07:02:32.514Z,81.27
2018-03-15T07:03:32.531Z,81.09
2018-03-15T07:04:32.522Z,80.62
2018-03-15T07:05:32.548Z,80.33
2018-03-15T07:06:32.566Z,79.95
2018-03-15T07:07:32.579Z,78.51
2018-03-15T07:08:32.519Z,75.51
2018-03-15T07:09:32.526Z,72.22
2018-03-15T07:10:32.542Z,69.35
2018-03-15T07:11:32.525Z,66.68
2018-03-15T07:12:32.551Z,66.20
2018-03-15T07:13:32.574Z,64.62
2018-03-15T07:14:32.532Z,63.67
2018-03-15T07:15:32.536Z,62.53
2018-03-15T07:16:32.591Z,62.05
2018-03-15T07:17:32.550Z,62.18
2018-03-15T07:18:32.552Z,61.51
2018-03-15T07:19:32.551Z,60.66
2018-03-15T07:20:32.587Z,60.40
2018-03-15T07:21:32.566Z,59.92
2018-03-15T07:22:32.571Z,59.70
2018-03-15T07:23:32.608Z,58.97
2018-03-15T07:24:32.563Z,58.87
2018-03-15T07:25:32.628Z,58.78
2018-03-15T07:26:32.586Z,57.92
2018-03-15T07:27:32.585Z,58.28
2018-03-15T07:28:32.589Z,59.03
2018-03-15T07:29:32.640Z,58.65
2018-03-15T07:30:32.667Z,58.75
2018-03-15T07:31:32.608Z,58.21
2018-03-15T07:32:32.615Z,58.11
2018-03-15T07:33:32.651Z,58.21
2018-03-15T07:34:32.795Z,57.48
2018-03-15T07:35:32.635Z,57.09
2018-03-15T07:36:32.634Z,56.33
2018-03-15T07:37:32.684Z,55.69
2018-03-15T07:38:32.658Z,55.76
2018-03-15T07:39:32.664Z,55.76
2018-03-15T07:40:32.705Z,55.85
2018-03-15T07:41:32.703Z,55.95
2018-03-15T07:42:32.698Z,55.60
2018-03-15T07:43:32.688Z,54.57
2018-03-15T07:44:32.700Z,53.65
2018-03-15T07:45:32.729Z,53.02
2018-03-15T07:46:32.779Z,52.67
2018-03-15T07:47:32.772Z,52.55
2018-03-15T07:48:32.724Z,52.73
2018-03-15T07:49:32.752Z,55.54
2018-03-15T07:50:32.756Z,56.18
2018-03-15T07:51:32.843Z,58.28
2018-03-15T07:52:32.836Z,58.02
2018-03-15T07:53:32.862Z,57.35
2018-03-15T07:54:32.790Z,56.90
2018-03-15T07:55:32.793Z,56.21
2018-03-15T07:56:32.804Z,55.88
2018-03-15T07:57:32.809Z,54.43
2018-03-15T07:58:32.820Z,54.74
2018-03-15T07:59:32.830Z,53.33
2018-03-15T08:00:32.856Z,53.59
2018-03-15T08:01:32.842Z,54.33
2018-03-15T08:02:32.872Z,54.93
2018-03-15T08:03:32.865Z,53.62
2018-03-15T08:04:32.875Z,52.67
2018-03-15T08:05:32.881Z,52.67
2018-03-15T08:06:32.893Z,52.64
2018-03-15T08:07:33.023Z,53.31
2018-03-15T08:08:32.913Z,53.53
2018-03-15T08:09:32.932Z,53.14
2018-03-15T08:10:32.937Z,52.76
2018-03-15T08:11:32.977Z,52.76
2018-03-15T08:12:32.950Z,52.76
2018-03-15T08:13:32.963Z,51.83
2018-03-15T08:14:33.032Z,51.07
2018-03-15T08:15:32.994Z,51.50
2018-03-15T08:16:32.998Z,52.45
2018-03-15T08:17:33.815Z,52.31
2018-03-15T08:18:33.060Z,51.45
2018-03-15T08:19:33.028Z,50.78
2018-03-15T08:20:33.070Z,50.43
2018-03-15T08:21:33.043Z,50.59
2018-03-15T08:22:33.061Z,51.04
2018-03-15T08:23:33.067Z,51.07
2018-03-15T08:24:33.076Z,51.04
2018-03-15T08:25:33.094Z,52.67
2018-03-15T08:26:33.103Z,52.28
2018-03-15T08:27:33.108Z,52.09
2018-03-15T08:28:33.124Z,51.90
2018-03-15T08:29:33.141Z,51.71
2018-03-15T08:30:33.142Z,51.54
2018-03-15T08:31:33.159Z,50.62
2018-03-15T08:32:33.165Z,49.66
2018-03-15T08:33:33.186Z,50.02
2018-03-15T08:34:33.194Z,50.43
2018-03-15T08:35:33.262Z,49.66
2018-03-15T08:36:33.221Z,50.04
2018-03-15T08:37:33.234Z,49.59
2018-03-15T08:38:33.247Z,48.47
2018-03-15T08:39:33.279Z,47.78
2018-03-15T08:40:33.269Z,48.68
2018-03-15T08:41:33.276Z,51.04
2018-03-15T08:42:33.287Z,51.90
2018-03-15T08:43:33.303Z,52.76
2018-03-15T08:44:33.314Z,52.22
2018-03-15T08:45:33.317Z,51.45
2018-03-15T08:46:34.340Z,51.17
2018-03-15T08:47:33.346Z,51.71
2018-03-15T08:48:33.362Z,52.22
2018-03-15T08:49:33.379Z,51.54
2018-03-15T08:50:33.383Z,51.81
2018-03-15T08:51:33.390Z,51.71
2018-03-15T08:52:33.410Z,52.09
2018-03-15T08:53:33.425Z,52.64
2018-03-15T08:54:33.432Z,52.67
2018-03-15T08:55:33.438Z,52.86
2018-03-15T08:56:33.471Z,52.67
2018-03-15T08:57:33.467Z,52.57
2018-03-15T08:58:33.505Z,52.88
2018-03-15T08:59:33.509Z,52.31
2018-03-15T09:00:33.516Z,52.76
2018-03-15T09:01:33.527Z,53.59
2018-03-15T09:02:33.540Z,54.45
2018-03-15T09:03:33.539Z,53.36
2018-03-15T09:04:33.554Z,52.98
2018-03-15T09:05:33.561Z,53.24
2018-03-15T09:06:34.334Z,53.24
2018-03-15T09:07:33.581Z,53.36
2018-03-15T09:08:33.599Z,52.34
2018-03-15T09:09:33.602Z,51.57
2018-03-15T09:10:33.613Z,51.38
2018-03-15T09:11:33.636Z,51.71
2018-03-15T09:12:33.635Z,52.40
2018-03-15T09:13:33.656Z,52.28
2018-03-15T09:14:33.665Z,52.57
2018-03-15T09:15:33.673Z,53.21
2018-03-15T09:16:33.690Z,53.14
2018-03-15T09:17:33.707Z,53.08
2018-03-15T09:18:33.729Z,52.88
2018-03-15T09:19:33.717Z,52.24
2018-03-15T09:20:33.734Z,50.88
2018-03-15T09:21:33.737Z,51.09
2018-03-15T09:22:33.758Z,51.07
2018-03-15T09:23:33.778Z,51.00
2018-03-15T09:24:33.776Z,51.09
2018-03-15T09:25:33.786Z,51.48
2018-03-15T09:26:33.796Z,51.45
2018-03-15T09:27:33.820Z,52.76
2018-03-15T09:28:33.829Z,53.08
2018-03-15T09:29:33.829Z,53.05
2018-03-15T09:30:33.846Z,53.41
2018-03-15T09:31:33.865Z,54.45
2018-03-15T09:32:33.876Z,55.41
2018-03-15T09:33:33.882Z,55.41
2018-03-15T09:34:33.947Z,55.69
2018-03-15T09:35:34.851Z,54.67
2018-03-15T09:36:33.953Z,54.22
2018-03-15T09:37:33.931Z,53.53
2018-03-15T09:38:33.943Z,53.72
2018-03-15T09:39:33.952Z,54.13
2018-03-15T09:40:33.985Z,53.93
2018-03-15T09:41:33.972Z,54.10
2018-03-15T09:42:33.981Z,55.02
2018-03-15T09:43:33.994Z,55.05
2018-03-15T09:44:34.002Z,54.67
2018-03-15T09:45:34.015Z,54.86
2018-03-15T09:46:34.025Z,56.26
2018-03-15T09:47:34.039Z,55.88
2018-03-15T09:48:34.051Z,56.26
2018-03-15T09:49:34.057Z,55.50
2018-03-15T09:50:34.106Z,54.64
2018-03-15T09:51:34.082Z,55.69
2018-03-15T09:52:34.095Z,55.88
2018-03-15T09:53:34.099Z,55.98
2018-03-15T09:54:34.187Z,55.79
2018-03-15T09:55:34.139Z,55.79
2018-03-15T09:56:34.139Z,55.15
2018-03-15T09:57:34.150Z,55.15
2018-03-15T09:58:34.170Z,54.93
2018-03-15T09:59:34.191Z,56.26
2018-03-15T10:00:34.232Z,56.26
2018-03-15T10:01:34.200Z,56.36
2018-03-15T10:02:34.218Z,56.74
2018-03-15T10:03:34.255Z,55.88
2018-03-15T10:04:34.233Z,55.72
2018-03-15T10:05:34.232Z,55.02
2018-03-15T10:06:34.249Z,55.60
2018-03-15T10:07:34.265Z,55.69
2018-03-15T10:08:34.269Z,55.79
2018-03-15T10:09:34.277Z,56.55
2018-03-15T10:10:34.417Z,56.62
2018-03-15T10:11:34.304Z,56.93
2018-03-15T10:12:34.313Z,57.19
2018-03-15T10:13:34.323Z,56.74
2018-03-15T10:14:34.326Z,56.55
2018-03-15T10:15:34.353Z,56.74
2018-03-15T10:16:34.346Z,57.19
2018-03-15T10:17:34.367Z,57.19
2018-03-15T10:18:34.376Z,57.38
2018-03-15T10:19:34.387Z,57.50
2018-03-15T10:20:34.389Z,56.81
2018-03-15T10:21:34.403Z,57.12
2018-03-15T10:22:34.412Z,56.84
2018-03-15T10:23:34.439Z,57.41
2018-03-15T10:24:34.438Z,57.12
2018-03-15T10:25:34.475Z,57.60
2018-03-15T10:26:34.458Z,56.71
2018-03-15T10:27:34.484Z,57.28
2018-03-15T10:28:34.472Z,57.03
2018-03-15T10:29:34.481Z,56.46
2018-03-15T10:30:34.486Z,56.65
2018-03-15T10:31:34.499Z,56.65
2018-03-15T10:32:34.509Z,57.31
2018-03-15T10:33:34.514Z,56.65
2018-03-15T10:34:34.519Z,56.84
2018-03-15T10:35:34.538Z,56.74
2018-03-15T10:36:34.544Z,56.65
2018-03-15T10:37:34.549Z,56.46
2018-03-15T10:38:34.554Z,56.36
2018-03-15T10:39:34.581Z,56.07
2018-03-15T10:40:34.587Z,56.65
2018-03-15T10:41:34.593Z,56.74
2018-03-15T10:42:34.629Z,56.93
2018-03-15T10:43:34.610Z,56.29
2018-03-15T10:44:34.620Z,55.72
2018-03-15T10:45:34.627Z,55.91
2018-03-15T10:46:34.635Z,55.60
2018-03-15T10:47:34.642Z,56.17
2018-03-15T10:48:34.666Z,56.46
2018-03-15T10:49:35.375Z,56.74
2018-03-15T10:50:34.674Z,56.29
2018-03-15T10:51:34.693Z,55.88
2018-03-15T10:52:34.694Z,55.88
2018-03-15T10:53:34.705Z,56.07
2018-03-15T10:54:34.710Z,56.26
2018-03-15T10:55:34.731Z,57.03
2018-03-15T10:56:34.733Z,56.10
2018-03-15T10:57:34.745Z,56.74
2018-03-15T10:58:34.749Z,56.65
2018-03-15T10:59:34.772Z,57.22
2018-03-15T11:00:35.375Z,57.41
2018-03-15T11:01:34.786Z,57.41
2018-03-15T11:02:34.793Z,57.60
2018-03-15T11:03:34.801Z,57.22
2018-03-15T11:04:34.810Z,57.12
2018-03-15T11:05:34.848Z,57.28
2018-03-15T11:06:34.828Z,57.50
2018-03-15T11:07:34.832Z,57.12
2018-03-15T11:08:34.842Z,57.03
2018-03-15T11:09:34.852Z,56.10
2018-03-15T11:10:34.861Z,55.62
2018-03-15T11:11:34.864Z,55.98
2018-03-15T11:12:34.874Z,56.26
2018-03-15T11:13:34.931Z,56.38
2018-03-15T11:14:34.896Z,56.20
2018-03-15T11:15:34.898Z,56.10
2018-03-15T11:16:34.905Z,56.01
2018-03-15T11:17:34.996Z,55.34
2018-03-15T11:18:34.928Z,55.05
2018-03-15T11:19:34.939Z,55.05
2018-03-15T11:20:34.945Z,55.21
2018-03-15T11:21:34.952Z,56.17
2018-03-15T11:22:34.961Z,56.07
2018-03-15T11:23:34.973Z,56.84
2018-03-15T11:24:34.983Z,56.65
2018-03-15T11:25:34.988Z,56.55
2018-03-15T11:26:34.997Z,56.93
2018-03-15T11:27:35.003Z,56.26
2018-03-15T11:28:35.012Z,56.26
2018-03-15T11:29:35.028Z,56.36
2018-03-15T11:30:35.038Z,55.82
2018-03-15T11:31:35.037Z,56.29
2018-03-15T11:32:35.045Z,56.10
2018-03-15T11:33:35.053Z,56.01
2018-03-15T11:34:35.068Z,56.26
2018-03-15T11:35:35.078Z,56.26
2018-03-15T11:36:35.075Z,56.07
2018-03-15T11:37:35.086Z,57.22
2018-03-15T11:38:35.102Z,56.55
2018-03-15T11:39:35.094Z,56.55
2018-03-15T11:40:35.103Z,56.17
2018-03-15T11:41:35.115Z,56.65
2018-03-15T11:42:35.122Z,56.46
2018-03-15T11:43:35.129Z,56.17
2018-03-15T11:44:35.140Z,56.36
2018-03-15T11:45:35.146Z,55.79
2018-03-15T11:46:35.154Z,56.36
2018-03-15T11:47:35.154Z,56.65
2018-03-15T11:48:35.175Z,56.65
2018-03-15T11:49:35.189Z,56.55
2018-03-15T11:50:35.196Z,57.12
2018-03-15T11:51:35.197Z,57.12
2018-03-15T11:52:35.215Z,56.93
2018-03-15T11:53:35.195Z,56.36
2018-03-15T11:54:35.207Z,56.10
2018-03-15T11:55:35.208Z,55.98
2018-03-15T11:56:35.218Z,56.07
2018-03-15T11:57:35.227Z,55.91
2018-03-15T11:58:35.228Z,56.01
2018-03-15T11:59:35.241Z,55.62
2018-03-15T12:00:35.273Z,55.72
2018-03-15T12:01:35.322Z,55.72
2018-03-15T12:02:35.264Z,54.86
2018-03-15T12:03:35.274Z,55.34
2018-03-15T12:04:35.273Z,55.72
2018-03-15T12:05:35.279Z,55.82
2018-03-15T12:06:35.287Z,56.29
2018-03-15T12:07:35.365Z,55.91
2018-03-15T12:08:35.299Z,55.69
2018-03-15T12:09:35.308Z,55.79
2018-03-15T12:10:35.315Z,55.79
2018-03-15T12:11:35.325Z,55.88
2018-03-15T12:12:35.327Z,55.69
2018-03-15T12:13:35.330Z,55.79
2018-03-15T12:14:35.342Z,55.69
2018-03-15T12:15:35.343Z,55.69
2018-03-15T12:16:35.349Z,55.69
2018-03-15T12:17:35.362Z,55.88
2018-03-15T12:18:35.364Z,55.60
2018-03-15T12:19:35.367Z,55.88
2018-03-15T12:20:35.375Z,55.69
2018-03-15T12:21:35.386Z,55.69
2018-03-15T12:22:35.387Z,55.88
2018-03-15T12:23:35.394Z,54.93
2018-03-15T12:24:35.404Z,54.83
2018-03-15T12:25:35.402Z,54.64
2018-03-15T12:26:35.438Z,54.64
2018-03-15T12:27:35.423Z,55.79
2018-03-15T12:28:35.423Z,55.98
2018-03-15T12:29:35.440Z,56.46
2018-03-15T12:30:35.433Z,56.84
2018-03-15T12:31:35.434Z,56.55
2018-03-15T12:32:35.439Z,56.65
2018-03-15T12:33:35.455Z,56.46
2018-03-15T12:34:35.499Z,56.65
2018-03-15T12:35:35.477Z,56.36
2018-03-15T12:36:35.466Z,56.36
2018-03-15T12:37:35.468Z,56.17
2018-03-15T12:38:35.479Z,57.03
2018-03-15T12:39:35.514Z,56.36
2018-03-15T12:40:35.483Z,56.55
2018-03-15T12:41:35.492Z,55.91
2018-03-15T12:42:35.510Z,56.20
2018-03-15T12:43:35.499Z,55.34
2018-03-15T12:44:35.509Z,54.67
2018-03-15T12:45:35.509Z,55.24
2018-03-15T12:46:35.520Z,54.96
2018-03-15T12:47:35.519Z,55.15
2018-03-15T12:48:35.532Z,55.02
2018-03-15T12:49:35.530Z,55.69
2018-03-15T12:50:35.538Z,55.88
2018-03-15T12:51:35.542Z,55.88
2018-03-15T12:52:35.554Z,55.60